Evinston, Florida
Current Conditions -  °F | °C
As of 11:53 AM on Sunday 21 Dec 2014 (Local Time) from KGNV Reporting Station
Light Rain Light Rain  
Wind Chill: 61°   Ceiling: 400
Heat Index: 61°   Visibility: 4mi
Dew Point: 60°   Wind: 8mph
Humidity: 97%   Direction: 60°ENE
Pressure: 30.11"   Gusts: NA
Location:  29.49°N, 82.23°W
Report Text: KGNV 211653Z 06007KT 4SM -RA BR OVC004 16/16 A3011 RMK AO2 SLP194 P0002 T01610156
Loading
Personal Weather Stations






























Interactive Weather Map New forecast layout! Learn more

10-Day Weather Forecast

Advertisements
Track Severe Weather on mobile